Time;durP1;ratioP1;P1;durP2;ratioP2;P2;SDS_P1;SDS_P2;PMS_P1;PMS_P2;Temp;Humidity;BMP_temperature;BMP_pressure;BME280_temperature;BME280_humidity;BME280_pressure;Samples;Min_cycle;Max_cycle;Signal;HPM_P1;HPM_P2
2024/04/11 00:04:53;;;;;;;1.27;0.63;;;;;;;8.01;57.89;101897.66;11007293;26;20001;-63
2024/04/11 00:09:56;;;;;;;2.78;0.43;;;;;;;7.95;58.17;101888.28;11013261;26;20019;-63
2024/04/11 00:14:58;;;;;;;3.00;0.70;;;;;;;7.85;58.06;101878.44;10999783;26;20013;-64
2024/04/11 00:20:01;;;;;;;3.90;0.70;;;;;;;7.64;58.64;101876.47;11009653;26;20023;-64
2024/04/11 00:25:03;;;;;;;1.55;0.50;;;;;;;7.63;58.35;101874.75;11006492;26;20020;-64
2024/04/11 00:30:06;;;;;;;2.08;0.65;;;;;;;7.59;58.85;101870.59;11002688;26;20001;-64
2024/04/11 00:35:09;;;;;;;2.80;0.60;;;;;;;7.47;59.28;101868.88;11014624;26;20005;-64
2024/04/11 00:40:11;;;;;;;3.50;0.80;;;;;;;7.49;59.09;101865.09;11006137;26;20436;-63
2024/04/11 00:45:13;;;;;;;1.55;0.50;;;;;;;7.48;59.05;101871.41;11004427;26;20001;-69
2024/04/11 00:50:16;;;;;;;2.38;0.47;;;;;;;7.43;59.11;101864.75;11005787;26;20333;-68
2024/04/11 00:55:19;;;;;;;0.88;0.70;;;;;;;7.43;59.11;101859.38;11007784;26;20018;-69
2024/04/11 01:00:26;;;;;;;2.35;0.70;;;;;;;7.39;59.30;101853.41;11005764;26;20017;-68
2024/04/11 01:05:28;;;;;;;2.03;0.73;;;;;;;7.29;59.59;101853.28;11007706;26;20051;-66
2024/04/11 01:10:30;;;;;;;2.47;0.60;;;;;;;7.23;59.56;101850.22;11004213;26;20001;-65
2024/04/11 01:15:37;;;;;;;2.97;0.50;;;;;;;7.15;59.48;101861.50;11000090;26;20022;-69
2024/04/11 01:20:39;;;;;;;2.90;0.50;;;;;;;7.02;59.84;101858.88;11003489;26;20053;-68
2024/04/11 01:25:41;;;;;;;4.20;0.60;;;;;;;6.90;60.26;101863.31;11004940;26;20007;-69
2024/04/11 01:30:43;;;;;;;1.98;0.60;;;;;;;6.78;61.20;101869.59;11004351;26;20001;-69
2024/04/11 01:35:48;;;;;;;2.83;0.65;;;;;;;6.74;60.57;101865.44;10994774;26;20002;-66
2024/04/11 01:40:50;;;;;;;2.40;0.80;;;;;;;6.77;60.84;101861.69;11003557;26;20005;-66
2024/04/11 01:45:56;;;;;;;4.10;0.63;;;;;;;6.77;60.30;101861.69;10999578;26;20084;-67
2024/04/11 01:50:59;;;;;;;1.48;0.45;;;;;;;6.76;60.34;101868.84;11006615;26;20004;-65
2024/04/11 01:56:02;;;;;;;3.58;0.55;;;;;;;6.70;60.75;101878.19;11003814;26;20621;-68
2024/04/11 02:01:09;;;;;;;6.40;1.00;;;;;;;6.67;60.60;101872.19;11003172;26;20005;-66
2024/04/11 02:06:11;;;;;;;1.17;0.50;;;;;;;6.67;60.29;101864.19;11009169;26;20005;-67
2024/04/11 02:11:13;;;;;;;2.35;0.55;;;;;;;6.66;60.48;101867.84;11004376;26;20008;-61
2024/04/11 02:16:14;;;;;;;4.07;0.55;;;;;;;6.63;60.41;101870.72;11013592;26;20028;-60
2024/04/11 02:21:19;;;;;;;2.35;0.50;;;;;;;6.55;61.02;101874.78;11005400;26;20002;-62
2024/04/11 02:26:20;;;;;;;7.03;1.55;;;;;;;6.51;60.87;101891.16;11002624;26;20012;-61
2024/04/11 02:31:22;;;;;;;3.05;0.70;;;;;;;6.47;61.03;101898.53;11009048;26;20001;-63
2024/04/11 02:36:29;;;;;;;3.30;0.55;;;;;;;6.46;60.87;101898.69;11006601;26;20012;-63
2024/04/11 02:41:31;;;;;;;2.85;0.80;;;;;;;6.42;61.19;101915.88;11001547;26;19998;-64
2024/04/11 02:46:34;;;;;;;6.18;0.80;;;;;;;6.34;61.20;101916.44;11007349;26;20011;-59
2024/04/11 02:51:37;;;;;;;1.98;0.60;;;;;;;6.27;61.64;101918.69;10997199;26;20325;-62
2024/04/11 02:56:39;;;;;;;3.00;0.60;;;;;;;6.30;61.45;101928.28;11011048;26;20024;-62
2024/04/11 03:01:43;;;;;;;1.58;0.70;;;;;;;6.27;61.36;101918.69;11004685;26;20017;-61
2024/04/11 03:06:45;;;;;;;2.50;0.95;;;;;;;6.25;61.81;101923.28;10998590;26;20005;-59
2024/04/11 03:11:46;;;;;;;3.03;0.60;;;;;;;6.22;61.49;101910.16;11004363;26;20019;-60
2024/04/11 03:16:48;;;;;;;6.85;1.38;;;;;;;6.17;61.61;101930.13;11000542;26;20673;-59
2024/04/11 03:21:50;;;;;;;4.28;2.25;;;;;;;6.16;61.82;101926.59;11010691;26;20001;-60
2024/04/11 03:26:51;;;;;;;4.68;1.73;;;;;;;6.10;61.92;101933.22;11006526;26;20611;-63
2024/04/11 03:31:54;;;;;;;2.65;1.15;;;;;;;6.08;62.29;101939.63;11009642;26;20006;-68
2024/04/11 03:36:56;;;;;;;2.13;1.20;;;;;;;6.00;62.46;101942.81;11010815;26;20001;-59
2024/04/11 03:41:58;;;;;;;3.05;0.50;;;;;;;5.97;62.59;101959.06;11006515;26;20017;-60
2024/04/11 03:47:00;;;;;;;5.50;0.80;;;;;;;5.95;62.59;101950.31;11011933;26;19998;-62
2024/04/11 03:52:05;;;;;;;4.22;0.70;;;;;;;5.90;62.06;101942.56;11010221;26;19998;-61
2024/04/11 03:57:07;;;;;;;2.15;0.65;;;;;;;5.84;62.71;101947.50;11014756;26;20016;-60
2024/04/11 04:02:08;;;;;;;4.25;0.90;;;;;;;5.80;62.82;101943.31;11013008;26;20001;-60
2024/04/11 04:07:10;;;;;;;2.28;0.80;;;;;;;5.81;62.96;101953.91;11008687;26;20029;-62
2024/04/11 04:12:12;;;;;;;2.78;0.95;;;;;;;5.75;62.99;101952.50;11014149;26;20013;-67
2024/04/11 04:17:16;;;;;;;2.95;0.90;;;;;;;5.79;62.64;101960.31;11030443;26;20020;-67
2024/04/11 04:22:17;;;;;;;3.50;1.15;;;;;;;5.73;63.17;101957.09;11006986;26;20024;-68
2024/04/11 04:27:19;;;;;;;5.03;1.00;;;;;;;5.74;62.66;101963.28;11008462;26;20005;-68
2024/04/11 04:32:20;;;;;;;4.10;1.17;;;;;;;5.71;62.88;101958.16;11009108;26;20024;-68
2024/04/11 04:37:22;;;;;;;2.65;0.98;;;;;;;5.73;63.28;101972.25;11000028;26;20020;-68
2024/04/11 04:42:23;;;;;;;4.00;0.90;;;;;;;5.80;62.71;101972.69;11152339;21;20032;-91
2024/04/11 04:47:34;;;;;;;6.90;1.02;;;;;;;5.87;62.78;101966.81;11149766;26;20003;-86
2024/04/11 04:52:38;;;;;;;2.50;1.10;;;;;;;5.90;62.76;101973.75;11183678;26;20003;-89
2024/04/11 04:57:40;;;;;;;2.45;1.00;;;;;;;5.92;62.55;101977.16;11185638;26;20055;-92
2024/04/11 05:02:42;;;;;;;2.75;0.80;;;;;;;5.88;63.02;101981.84;11207866;26;20068;-90
2024/04/11 05:07:45;;;;;;;4.53;1.08;;;;;;;5.96;62.71;101981.38;11163149;26;20013;-89
2024/04/11 05:12:49;;;;;;;8.50;1.00;;;;;;;6.01;62.71;101979.25;11197829;26;19992;-91
2024/04/11 05:17:51;;;;;;;5.85;1.00;;;;;;;6.05;63.04;101982.56;11162642;26;20009;-91
2024/04/11 05:22:56;;;;;;;7.13;1.08;;;;;;;6.16;62.88;101988.00;11211259;26;20009;-91
2024/04/11 05:27:59;;;;;;;4.10;1.30;;;;;;;6.28;62.77;101995.16;11234270;26;19999;-90
2024/04/11 05:33:01;;;;;;;4.63;1.05;;;;;;;6.37;62.70;102003.50;11266476;26;20000;-88
2024/04/11 05:38:10;;;;;;;3.40;1.60;;;;;;;6.47;62.85;102012.56;11239238;26;20092;-91
2024/04/11 05:43:15;;;;;;;9.27;1.23;;;;;;;6.55;63.01;102007.53;11228670;26;20003;-88
2024/04/11 05:48:29;;;;;;;3.85;1.35;;;;;;;6.70;63.02;102010.94;11210595;26;20008;-89
2024/04/11 05:53:37;;;;;;;2.72;1.15;;;;;;;6.86;62.95;102008.03;11235637;26;20000;-89
2024/04/11 05:58:40;;;;;;;5.30;1.70;;;;;;;7.05;62.67;102012.88;11237020;26;20008;-90
2024/04/11 06:03:46;;;;;;;3.40;1.48;;;;;;;7.26;62.79;102013.13;11249700;26;20005;-88
2024/04/11 06:08:55;;;;;;;6.07;2.55;;;;;;;7.48;62.89;102013.22;11203441;26;20013;-89
2024/04/11 06:13:57;;;;;;;13.98;2.42;;;;;;;7.75;62.67;102012.13;11224855;26;20003;-89
2024/04/11 06:19:00;;;;;;;5.13;1.60;;;;;;;8.04;62.48;102017.94;11265863;21;20016;-66
2024/04/11 06:24:02;;;;;;;6.60;2.60;;;;;;;8.28;62.85;102006.28;11213238;26;20424;-66
2024/04/11 06:29:08;;;;;;;5.30;2.85;;;;;;;8.61;62.50;102007.28;11223124;26;20006;-66
2024/04/11 06:34:10;;;;;;;5.95;2.50;;;;;;;8.92;61.54;101993.13;11221950;26;20021;-62
2024/04/11 06:39:13;;;;;;;5.63;2.58;;;;;;;9.17;61.32;101991.13;11236201;26;20017;-60
2024/04/11 06:44:16;;;;;;;9.02;2.47;;;;;;;9.43;61.43;101988.97;11245251;26;19999;-60
2024/04/11 06:49:18;;;;;;;9.32;2.25;;;;;;;9.61;61.47;101981.19;11232426;26;19999;-60
2024/04/11 06:54:20;;;;;;;9.52;2.65;;;;;;;9.83;60.70;101977.53;11255646;26;20011;-62
2024/04/11 06:59:22;;;;;;;8.85;3.15;;;;;;;9.87;61.58;101978.13;11240691;26;19999;-61
2024/04/11 07:04:26;;;;;;;8.00;2.83;;;;;;;10.03;61.20;101975.84;11238286;26;20022;-62
2024/04/11 07:09:37;;;;;;;11.43;3.35;;;;;;;10.27;60.61;101966.66;11235661;26;20015;-60
2024/04/11 07:14:40;;;;;;;8.23;3.35;;;;;;;10.42;60.79;101969.84;11231155;26;20412;-61
2024/04/11 07:19:42;;;;;;;11.82;3.55;;;;;;;10.56;60.43;101985.59;11234440;26;20024;-59
2024/04/11 07:24:44;;;;;;;8.57;3.92;;;;;;;10.64;60.31;101983.13;11232183;26;20006;-61
2024/04/11 07:29:46;;;;;;;8.25;2.92;;;;;;;10.77;60.50;101984.72;11230234;26;20007;-59
2024/04/11 07:34:48;;;;;;;10.55;4.18;;;;;;;10.94;59.66;101981.38;11239488;26;20011;-59
2024/04/11 07:39:49;;;;;;;8.00;2.95;;;;;;;11.08;59.48;101989.03;11228375;26;20006;-59
2024/04/11 07:44:51;;;;;;;8.20;3.53;;;;;;;11.28;59.02;101999.84;11219613;26;20007;-62
2024/04/11 07:49:52;;;;;;;9.15;3.00;;;;;;;11.53;58.84;102009.19;11208653;26;20108;-62
2024/04/11 07:54:55;;;;;;;6.10;3.13;;;;;;;11.83;58.06;102010.06;11208738;26;20003;-62
2024/04/11 08:00:00;;;;;;;16.77;4.18;;;;;;;12.13;57.58;102014.44;11207696;26;19996;-62
2024/04/11 08:05:04;;;;;;;10.88;3.28;;;;;;;12.45;56.87;102005.97;11215824;26;20017;-61
2024/04/11 08:10:08;;;;;;;7.80;2.60;;;;;;;12.73;56.51;102013.25;11219962;26;20006;-62
2024/04/11 08:15:10;;;;;;;6.90;2.10;;;;;;;13.02;55.72;102013.09;11224138;26;20832;-62
2024/04/11 08:20:15;;;;;;;9.85;2.30;;;;;;;13.24;55.05;102018.06;11222860;26;20006;-62
2024/04/11 08:25:16;;;;;;;8.65;2.10;;;;;;;13.46;54.21;102019.50;11218672;26;19996;-61
2024/04/11 08:30:18;;;;;;;4.60;1.88;;;;;;;13.57;53.70;102028.41;11220097;26;20000;-62
2024/04/11 08:35:20;;;;;;;6.32;1.92;;;;;;;13.91;52.83;102019.56;11211831;26;20428;-62
2024/04/11 08:40:21;;;;;;;5.72;1.88;;;;;;;14.23;52.53;102021.66;11223000;26;20015;-62
2024/04/11 08:45:26;;;;;;;4.40;1.90;;;;;;;14.56;51.55;102021.84;11215994;26;20042;-62
2024/04/11 08:50:29;;;;;;;7.15;1.67;;;;;;;14.92;51.03;102014.44;11210965;26;20003;-62
2024/04/11 08:55:31;;;;;;;4.78;1.45;;;;;;;15.29;50.89;102015.91;11221102;26;20003;-62
2024/04/11 09:00:38;;;;;;;5.97;1.67;;;;;;;15.52;49.76;102004.41;11218410;26;20010;-62
2024/04/11 09:05:40;;;;;;;6.22;1.42;;;;;;;15.87;48.47;102014.13;11220721;26;20002;-61
2024/04/11 09:10:43;;;;;;;8.05;1.80;;;;;;;16.34;47.71;102010.66;11195371;26;20023;-62
2024/04/11 09:15:45;;;;;;;2.35;0.88;;;;;;;16.63;46.73;102012.78;11218810;26;19999;-62
2024/04/11 09:20:47;;;;;;;9.93;0.90;;;;;;;17.03;45.44;102018.25;11216324;26;20007;-62
2024/04/11 09:25:49;;;;;;;3.65;0.90;;;;;;;17.43;44.26;102028.03;11217655;26;20002;-57
2024/04/11 09:30:54;;;;;;;5.57;0.90;;;;;;;17.67;43.48;102028.88;11220515;26;19996;-58
2024/04/11 09:35:58;;;;;;;1.90;0.30;;;;;;;18.07;41.21;102021.47;11231683;26;20012;-60
2024/04/11 09:41:04;;;;;;;3.58;0.45;;;;;;;18.32;40.28;102011.16;11220507;26;19996;-58
2024/04/11 09:46:06;;;;;;;3.00;0.50;;;;;;;18.95;38.78;102008.91;11226474;26;20003;-59
2024/04/11 09:51:10;;;;;;;2.47;0.30;;;;;;;18.92;37.90;102020.22;11213830;26;20297;-59
2024/04/11 09:56:15;;;;;;;2.15;0.40;;;;;;;19.11;37.04;102007.00;11223749;26;19999;-59
2024/04/11 10:01:31;;;;;;;3.53;0.75;;;;;;;19.31;36.33;102015.41;11182847;26;20460;-57
2024/04/11 10:06:35;;;;;;;2.42;0.30;;;;;;;19.55;35.81;102023.22;11217706;26;20007;-60
2024/04/11 10:11:42;;;;;;;4.53;0.85;;;;;;;19.87;34.67;102025.66;11227889;26;20009;-59
2024/04/11 10:16:49;;;;;;;2.85;0.50;;;;;;;19.71;34.54;102019.44;11228721;26;20006;-59
2024/04/11 10:21:52;;;;;;;4.30;0.40;;;;;;;20.09;34.39;102026.47;11232688;26;20011;-58
2024/04/11 10:27:06;;;;;;;4.03;0.57;;;;;;;20.02;33.67;102031.84;11226835;26;20005;-58
2024/04/11 10:32:35;;;;;;;2.10;0.30;;;;;;;20.23;33.09;102030.97;11225562;26;20420;-58
2024/04/11 10:37:40;;;;;;;2.05;0.50;;;;;;;20.13;32.92;102035.94;11188629;26;20003;-60
2024/04/11 10:43:11;;;;;;;4.18;0.63;;;;;;;20.19;32.94;102035.97;11226023;26;19996;-58
2024/04/11 10:48:14;;;;;;;2.75;0.75;;;;;;;20.24;32.68;102032.69;11219232;26;20018;-59
2024/04/11 10:53:24;;;;;;;2.38;0.30;;;;;;;20.21;32.21;102030.34;11200270;26;20004;-59
2024/04/11 10:58:28;;;;;;;2.42;0.50;;;;;;;20.23;32.06;102041.06;11241982;26;20474;-58
2024/04/11 11:03:47;;;;;;;1.88;0.30;;;;;;;20.26;31.71;102025.13;11243907;26;20063;-62
2024/04/11 11:08:55;;;;;;;6.05;0.40;;;;;;;21.08;30.87;102014.44;11254098;26;20035;-61
2024/04/11 11:14:00;;;;;;;2.28;0.40;;;;;;;21.41;30.64;102022.75;11233202;26;21340;-65
2024/04/11 11:19:02;;;;;;;1.80;0.40;;;;;;;21.80;30.13;102015.69;11215361;26;20057;-65
2024/04/11 11:24:06;;;;;;;3.55;0.70;;;;;;;21.87;29.87;102002.81;11212540;26;20498;-65
2024/04/11 11:29:09;;;;;;;3.28;0.40;;;;;;;21.89;30.12;102003.44;11209344;26;19996;-65
2024/04/11 11:34:11;;;;;;;1.45;0.30;;;;;;;21.68;30.53;101995.44;11224492;26;20000;-65
2024/04/11 11:39:25;;;;;;;2.92;1.02;;;;;;;22.01;30.17;101991.88;11223286;26;20018;-65
2024/04/11 11:44:40;;;;;;;4.22;0.47;;;;;;;22.09;30.28;101991.66;11224899;26;20458;-65
2024/04/11 11:49:42;;;;;;;1.92;0.47;;;;;;;21.99;30.07;101987.44;11223399;26;20018;-65
2024/04/11 11:54:44;;;;;;;2.90;0.38;;;;;;;22.03;29.81;101976.91;11222590;26;20007;-64
2024/04/11 11:59:45;;;;;;;2.45;0.30;;;;;;;21.80;29.91;101982.84;11226032;26;20007;-66
2024/04/11 12:04:52;;;;;;;2.63;0.30;;;;;;;21.83;30.03;101978.81;11221266;26;20003;-64
2024/04/11 12:10:12;;;;;;;3.63;0.45;;;;;;;22.36;29.38;101962.34;11221859;26;20113;-62
2024/04/11 12:15:14;;;;;;;2.80;0.50;;;;;;;22.45;29.35;101961.03;11227682;26;20076;-62
2024/04/11 12:20:16;;;;;;;4.18;0.60;;;;;;;22.57;29.47;101964.81;11184758;26;20016;-62
2024/04/11 12:25:18;;;;;;;3.42;0.40;;;;;;;22.20;29.68;101968.25;11187675;26;20006;-59
2024/04/11 12:30:22;;;;;;;4.35;0.47;;;;;;;22.57;29.51;101950.25;11225051;26;20011;-58
2024/04/11 12:35:29;;;;;;;2.97;0.30;;;;;;;22.78;29.42;101962.81;11234866;26;20490;-59
2024/04/11 12:40:39;;;;;;;4.63;0.47;;;;;;;22.70;29.22;101952.94;11226692;26;20003;-63
2024/04/11 12:45:51;;;;;;;2.05;0.70;;;;;;;22.83;29.01;101946.56;11229733;26;19999;-60
2024/04/11 12:50:59;;;;;;;3.38;0.30;;;;;;;22.74;28.67;101948.69;11224517;26;20014;-60
2024/04/11 12:56:01;;;;;;;4.25;0.40;;;;;;;22.84;27.94;101950.97;11189349;26;20003;-59
2024/04/11 13:01:03;;;;;;;1.02;0.30;;;;;;;22.96;27.89;101943.72;11228184;26;20093;-63
2024/04/11 13:06:08;;;;;;;4.72;0.45;;;;;;;23.49;27.27;101937.09;11225425;26;20002;-59
2024/04/11 13:11:10;;;;;;;6.03;0.30;;;;;;;24.23;26.31;101931.78;11209357;26;20015;-60
2024/04/11 13:16:11;;;;;;;2.13;0.20;;;;;;;24.87;25.89;101932.28;11195374;26;20007;-59
2024/04/11 13:21:30;;;;;;;5.53;0.38;;;;;;;25.54;25.05;101928.53;11217252;26;20014;-62
2024/04/11 13:26:35;;;;;;;3.85;0.30;;;;;;;26.43;24.31;101930.31;11227888;26;20012;-61
2024/04/11 13:31:45;;;;;;;1.60;0.30;;;;;;;26.45;24.01;101934.50;11233630;26;20023;-58
2024/04/11 13:36:49;;;;;;;5.63;0.40;;;;;;;26.25;23.98;101926.63;11236287;26;20865;-59
2024/04/11 13:41:51;;;;;;;2.67;0.38;;;;;;;26.79;23.11;101918.09;11217065;26;20022;-69
2024/04/11 13:46:53;;;;;;;2.40;0.40;;;;;;;29.26;21.42;101914.22;11228586;26;20003;-65
2024/04/11 13:51:54;;;;;;;4.75;0.30;;;;;;;30.55;20.07;101911.19;11220872;26;20015;-67
2024/04/11 13:56:59;;;;;;;2.13;0.30;;;;;;;31.08;19.45;101904.66;11226880;26;20014;-68
2024/04/11 14:02:09;;;;;;;1.55;0.40;;;;;;;31.03;19.41;101897.16;11218738;26;20004;-67
2024/04/11 14:07:11;;;;;;;3.13;0.30;;;;;;;32.12;19.44;101891.22;11225268;26;19999;-66
2024/04/11 14:12:16;;;;;;;5.05;0.40;;;;;;;33.47;18.06;101878.91;11218423;26;19999;-64
2024/04/11 14:17:22;;;;;;;2.33;0.30;;;;;;;33.51;17.92;101877.25;11210711;26;20030;-63
2024/04/11 14:22:29;;;;;;;1.77;0.30;;;;;;;33.23;17.87;101870.50;11211073;26;20014;-63
2024/04/11 14:27:31;;;;;;;2.97;0.30;;;;;;;33.62;17.85;101855.66;11211895;26;20084;-63
2024/04/11 14:33:44;;;;;;;5.47;0.40;;;;;;;33.34;17.85;101866.50;11212825;26;20003;-63
2024/04/11 14:38:09;;;;;;;3.85;0.30;;;;;;;32.78;18.39;101861.38;11190652;26;20003;-63
2024/04/11 14:43:11;;;;;;;3.10;0.30;;;;;;;33.03;18.10;101856.72;11219315;26;20000;-68
2024/04/11 14:48:18;;;;;;;2.63;0.30;;;;;;;32.86;17.12;101860.78;11217298;26;20018;-65
2024/04/11 14:53:24;;;;;;;2.00;0.32;;;;;;;32.48;17.47;101842.88;11219088;26;19999;-64
2024/04/11 14:58:30;;;;;;;1.45;0.13;;;;;;;31.38;18.64;101848.22;11210417;26;20007;-63
2024/04/11 15:03:41;;;;;;;2.05;0.40;;;;;;;30.08;18.75;101859.38;11211803;26;20015;-63
2024/04/11 15:08:46;;;;;;;3.28;0.30;;;;;;;29.81;19.17;101845.63;11197044;26;20054;-63
2024/04/11 15:13:53;;;;;;;3.72;0.63;;;;;;;29.46;19.25;101847.03;11211185;26;20007;-63
2024/04/11 15:18:55;;;;;;;2.80;0.30;;;;;;;30.18;18.96;101848.31;11223128;26;20025;-63
2024/04/11 15:23:58;;;;;;;1.85;0.43;;;;;;;29.46;19.07;101855.34;11212091;26;20023;-62
2024/04/11 15:29:02;;;;;;;7.18;0.30;;;;;;;28.57;19.83;101857.59;11155614;26;20003;-63
2024/04/11 15:34:09;;;;;;;3.17;0.20;;;;;;;28.00;20.09;101845.00;11205510;26;20004;-63
2024/04/11 15:39:16;;;;;;;2.83;0.30;;;;;;;28.30;20.66;101846.47;11215202;26;19999;-62
2024/04/11 15:44:17;;;;;;;3.20;0.35;;;;;;;28.49;20.89;101833.94;11209846;26;19999;-62
2024/04/11 15:49:25;;;;;;;1.02;0.17;;;;;;;28.88;20.25;101846.84;11184427;26;20076;-62
2024/04/11 15:54:37;;;;;;;1.05;0.10;;;;;;;28.18;20.58;101852.16;11208978;26;20003;-66
2024/04/11 15:59:39;;;;;;;3.40;0.30;;;;;;;27.94;21.25;101845.19;11173746;26;20025;-67
2024/04/11 16:04:43;;;;;;;1.02;0.20;;;;;;;27.50;21.48;101840.38;11184669;26;20015;-67
2024/04/11 16:09:53;;;;;;;2.13;0.30;;;;;;;27.35;21.27;101834.63;11215419;26;20019;-63
2024/04/11 16:14:56;;;;;;;2.13;0.20;;;;;;;26.43;22.31;101833.78;11198549;26;20109;-62
2024/04/11 16:20:02;;;;;;;2.40;0.30;;;;;;;25.69;23.10;101831.66;11205862;26;20023;-66
2024/04/11 16:25:06;;;;;;;1.17;0.20;;;;;;;25.05;23.66;101837.00;11214177;26;20448;-63
2024/04/11 16:30:11;;;;;;;3.67;0.28;;;;;;;24.68;23.96;101820.63;11210636;26;20043;-62
2024/04/11 16:35:13;;;;;;;1.85;0.28;;;;;;;24.76;24.75;101827.69;11219179;26;20101;-63
2024/04/11 16:40:23;;;;;;;3.85;0.50;;;;;;;24.64;24.89;101830.41;11217116;26;20010;-64
2024/04/11 16:45:26;;;;;;;2.17;0.30;;;;;;;24.39;25.48;101828.63;11199570;26;20547;-64
2024/04/11 16:50:36;;;;;;;1.45;0.30;;;;;;;23.95;25.71;101823.25;11220612;26;20000;-63
2024/04/11 16:55:40;;;;;;;3.83;0.20;;;;;;;23.75;25.74;101822.59;11197160;26;20003;-63
2024/04/11 17:00:43;;;;;;;3.33;0.52;;;;;;;23.63;26.59;101822.50;11212409;26;20017;-64
2024/04/11 17:05:55;;;;;;;8.50;0.30;;;;;;;23.54;26.92;101812.91;11220369;26;20027;-61
2024/04/11 17:10:58;;;;;;;1.20;0.30;;;;;;;23.91;26.14;101813.78;11227633;26;20004;-59
2024/04/11 17:16:15;;;;;;;2.38;0.60;;;;;;;24.07;26.65;101812.34;11222488;26;19999;-59
2024/04/11 17:21:49;;;;;;;3.30;0.40;;;;;;;23.77;27.23;101828.69;11222387;26;20021;-60
2024/04/11 17:26:57;;;;;;;4.57;0.38;;;;;;;23.35;27.69;101829.31;11227094;26;20050;-60
2024/04/11 17:32:03;;;;;;;2.90;0.30;;;;;;;23.04;27.82;101835.69;11220095;26;20003;-58
2024/04/11 17:37:14;;;;;;;4.57;0.30;;;;;;;22.52;28.92;101843.19;11181634;26;19996;-59
2024/04/11 17:42:23;;;;;;;2.40;0.32;;;;;;;22.01;29.08;101841.25;11209570;26;20013;-57
2024/04/11 17:47:31;;;;;;;0.98;0.30;;;;;;;21.58;29.57;101842.59;11220151;26;20003;-58
2024/04/11 17:57:47;;;;;;;6.10;0.38;;;;;;;20.72;30.76;101844.22;11225706;26;20112;-59
2024/04/11 18:02:49;;;;;;;3.30;0.70;;;;;;;20.41;31.31;101852.91;11186841;26;20003;-59
2024/04/11 18:07:52;;;;;;;5.63;0.60;;;;;;;20.09;31.68;101855.28;11230032;26;20003;-58
2024/04/11 18:12:53;;;;;;;2.75;0.50;;;;;;;19.79;32.17;101879.28;11221688;26;20007;-62
2024/04/11 18:17:57;;;;;;;1.13;0.30;;;;;;;19.45;32.83;101880.88;11180928;26;19995;-60
2024/04/11 18:23:00;;;;;;;4.57;0.40;;;;;;;19.22;33.28;101881.94;11219767;26;20083;-61
2024/04/11 18:28:11;;;;;;;3.78;0.50;;;;;;;18.98;33.66;101875.00;11212274;26;20003;-60
2024/04/11 18:33:15;;;;;;;3.15;0.50;;;;;;;18.69;34.77;101877.78;11190177;26;20015;-60
2024/04/11 18:38:16;;;;;;;4.43;0.95;;;;;;;18.43;34.98;101866.38;11211812;26;20003;-60
2024/04/11 18:43:21;;;;;;;2.47;0.50;;;;;;;18.18;36.09;101884.91;11213570;26;20021;-61
2024/04/11 18:48:37;;;;;;;3.63;0.73;;;;;;;17.96;36.91;101886.69;11218222;26;19999;-61
2024/04/11 18:53:39;;;;;;;4.68;1.25;;;;;;;17.77;37.70;101874.47;11207970;26;20003;-60
2024/04/11 18:58:43;;;;;;;2.63;1.05;;;;;;;17.58;38.31;101875.00;11221683;26;20075;-60
2024/04/11 19:03:44;;;;;;;3.15;0.50;;;;;;;17.34;39.20;101892.38;11214261;26;20473;-60
2024/04/11 19:08:48;;;;;;;10.20;0.80;;;;;;;17.10;39.46;101891.53;11212256;26;20006;-61
2024/04/11 19:13:54;;;;;;;2.63;0.68;;;;;;;16.88;39.80;101897.78;11215833;26;20482;-61
2024/04/11 19:18:56;;;;;;;9.20;0.70;;;;;;;16.56;40.55;101905.06;11220026;26;20451;-61
2024/04/11 19:24:11;;;;;;;2.00;0.50;;;;;;;16.44;40.80;101916.31;11218810;26;20456;-59
2024/04/11 19:29:21;;;;;;;6.35;0.85;;;;;;;16.21;41.29;101937.09;11214961;26;20522;-59
2024/04/11 19:34:25;;;;;;;2.38;1.00;;;;;;;15.92;41.84;101938.53;11208984;26;20003;-59
2024/04/11 19:39:28;;;;;;;4.15;0.60;;;;;;;15.77;42.32;101937.53;11212126;26;20006;-58
2024/04/11 19:44:30;;;;;;;4.80;0.88;;;;;;;15.58;43.48;101950.38;11216602;26;21219;-58
2024/04/11 19:49:34;;;;;;;4.03;1.10;;;;;;;15.42;44.17;101934.09;11217855;26;20003;-58
2024/04/11 19:54:46;;;;;;;3.38;0.90;;;;;;;15.33;44.97;101940.56;11216894;26;20356;-58
2024/04/11 19:59:51;;;;;;;5.90;1.20;;;;;;;15.24;45.01;101936.97;11225021;26;20477;-59
2024/04/11 20:04:56;;;;;;;6.82;1.48;;;;;;;15.33;45.30;101937.84;11224284;26;20008;-58
2024/04/11 20:10:01;;;;;;;4.82;1.35;;;;;;;15.31;45.61;101939.88;11217937;26;20003;-58
2024/04/11 20:15:45;;;;;;;3.42;1.00;;;;;;;15.21;45.10;101931.91;11220232;26;20014;-58
2024/04/11 20:20:30;;;;;;;3.95;1.20;;;;;;;15.11;45.85;101926.66;11203879;26;20003;-58
2024/04/11 20:25:32;;;;;;;4.88;1.00;;;;;;;15.04;46.43;101929.16;11215375;26;19996;-58
2024/04/11 20:30:36;;;;;;;5.03;1.05;;;;;;;14.94;46.43;101933.03;11222383;26;20022;-57
2024/04/11 20:35:43;;;;;;;3.88;1.08;;;;;;;14.78;47.38;101934.69;11221165;26;20003;-59
2024/04/11 20:40:45;;;;;;;3.78;0.70;;;;;;;14.64;47.46;101936.16;11217747;26;20015;-59
2024/04/11 20:45:47;;;;;;;7.13;1.42;;;;;;;14.48;48.16;101942.31;11203797;26;21183;-60
2024/04/11 21:33:36;;;;;;;7.57;2.50;;;;;;;13.75;50.74;101937.34;11202299;26;20014;-59
2024/04/11 21:38:40;;;;;;;4.30;2.47;;;;;;;13.67;51.12;101932.72;11219508;26;20007;-60
2024/04/11 21:43:42;;;;;;;5.30;1.65;;;;;;;13.69;51.34;101928.00;11218677;26;20015;-60
2024/04/11 21:48:46;;;;;;;6.05;1.92;;;;;;;13.67;51.66;101946.22;11223556;26;20003;-61
2024/04/11 21:53:51;;;;;;;2.78;1.30;;;;;;;13.59;51.66;101948.88;11191445;26;20043;-62
2024/04/11 21:58:57;;;;;;;5.63;1.38;;;;;;;13.52;51.95;101944.25;11184352;26;20350;-61
2024/04/11 22:04:00;;;;;;;9.52;1.20;;;;;;;13.44;52.20;101951.25;11220622;26;20439;-60
2024/04/11 22:09:11;;;;;;;2.85;0.70;;;;;;;13.27;52.61;101950.25;11213060;26;20065;-61
2024/04/11 22:14:30;;;;;;;3.97;0.70;;;;;;;13.14;53.13;101952.47;11222694;26;20022;-61
2024/04/11 22:19:33;;;;;;;1.25;0.50;;;;;;;13.17;53.03;101948.59;11214165;26;20004;-61
2024/04/11 22:24:36;;;;;;;1.77;0.63;;;;;;;13.17;53.02;101954.00;11226662;26;20438;-61
2024/04/11 22:29:38;;;;;;;3.72;0.93;;;;;;;13.12;53.06;101959.03;11193989;26;20000;-61
2024/04/11 22:34:43;;;;;;;6.63;1.77;;;;;;;13.03;53.95;101952.69;11215663;26;20023;-61
2024/04/11 22:39:50;;;;;;;1.83;0.90;;;;;;;12.96;54.08;101955.16;11212903;26;20016;-61
2024/04/11 22:45:04;;;;;;;4.65;1.23;;;;;;;12.93;54.12;101949.22;11213877;26;20473;-61
2024/04/11 22:50:15;;;;;;;3.97;1.30;;;;;;;12.88;54.43;101947.81;11217484;26;20000;-61
2024/04/11 22:55:24;;;;;;;4.20;1.42;;;;;;;12.86;54.55;101949.81;11214443;26;20035;-61
2024/04/11 23:00:29;;;;;;;4.00;1.23;;;;;;;12.81;54.79;101956.66;11219579;26;20046;-61
2024/04/11 23:05:34;;;;;;;4.13;1.10;;;;;;;12.69;55.03;101948.75;11209232;26;20068;-61
2024/04/11 23:10:39;;;;;;;1.98;0.77;;;;;;;12.58;55.19;101946.28;11213955;26;20016;-61
2024/04/11 23:15:52;;;;;;;3.55;0.88;;;;;;;12.55;55.74;101951.13;11210365;26;20018;-61
2024/04/11 23:21:06;;;;;;;3.33;0.90;;;;;;;12.51;55.67;101953.28;11212599;26;20003;-61
2024/04/11 23:26:13;;;;;;;3.90;1.00;;;;;;;12.45;55.77;101952.00;11219740;26;20007;-61
2024/04/11 23:31:16;;;;;;;4.33;1.20;;;;;;;12.39;55.98;101954.47;11187637;26;20762;-61
2024/04/11 23:36:18;;;;;;;2.42;0.65;;;;;;;12.36;56.25;101957.44;11224160;26;20012;-61
2024/04/11 23:41:24;;;;;;;3.10;1.45;;;;;;;12.28;56.38;101953.66;11219201;26;20006;-61
2024/04/11 23:46:27;;;;;;;3.90;1.15;;;;;;;12.26;56.24;101952.97;11216669;26;20013;-60
2024/04/11 23:51:30;;;;;;;2.20;0.88;;;;;;;12.24;56.37;101951.38;11221590;26;20089;-61
2024/04/11 23:56:35;;;;;;;3.70;1.35;;;;;;;12.18;56.35;101946.59;11218650;26;20014;-61
